Terminal Aerodrome Forecast
Issued by NWS Sterling, VA

Current Version | Previous Version | Graphics & Text | Print | Product List | Glossary On
Versions: 1 2 3 4 5 6 7 8 9 10 11 12 13 14 15 16 17 18 19 20 21
000
FTUS41 KLWX 222300 RRA
TAFDCA
TAF
KDCA 222343Z 2300/2324 24006KT P6SM SCT100
     FM230030 36011KT P6SM BKN060
     FM230130 32010KT P6SM SCT200
     FM231100 31015G23KT P6SM SCT200
     FM231500 31020G32KT P6SM SCT200
     FM232200 32016G25KT P6SM FEW200=

USA.gov is the U.S. government's official web portal to all federal, state and local government web resources and services.